Terminal Aerodrome Forecast
Issued by NWS

Home | Current Version | Previous Version | Text Only | Print | Product List | Glossary Off
Versions: 1 2 3 4 5 6 7 8 9 10 11 12 13 14

000
FTUS43 KUNR 012320
TAFGCC
TAF
KGCC 012320Z 0200/0224 02008KT P6SM SCT090
     FM020300 34005KT P6SM BKN080
     FM021500 33015KT P6SM BKN060=

USA.gov is the U.S. government's official web portal to all federal, state and local government web resources and services.